Time;durP1;ratioP1;P1;durP2;ratioP2;P2;SDS_P1;SDS_P2;PMS_P1;PMS_P2;Temp;Humidity;BMP_temperature;BMP_pressure;BME280_temperature;BME280_humidity;BME280_pressure;Samples;Min_cycle;Max_cycle;Signal;HPM_P1;HPM_P2
2021/07/17 00:01:07;;;;;;;23.27;14.15;;;21.50;99.90;;;20.51;100.00;102513.25;5020909;28;21127;-73
2021/07/17 00:03:34;;;;;;;23.70;14.77;;;21.60;99.90;;;20.53;100.00;102471.22;5036915;28;20045;-73
2021/07/17 00:06:00;;;;;;;19.33;14.05;;;21.60;99.90;;;20.53;100.00;102465.84;5019939;28;20037;-72
2021/07/17 00:08:27;;;;;;;20.88;14.60;;;21.60;99.90;;;20.59;100.00;102475.38;5022576;28;20021;-73
2021/07/17 00:10:53;;;;;;;28.85;15.40;;;21.60;99.90;;;20.64;100.00;102460.72;5022327;28;20033;-72
2021/07/17 00:13:20;;;;;;;22.35;14.95;;;21.60;99.90;;;20.71;100.00;102487.13;5016284;28;20036;-73
2021/07/17 00:15:48;;;;;;;23.02;14.40;;;21.80;99.90;;;20.77;100.00;102451.94;5021368;28;20450;-73
2021/07/17 00:18:17;;;;;;;23.10;14.65;;;21.80;99.90;;;20.66;100.00;102437.41;5013391;28;20031;-72
2021/07/17 00:20:45;;;;;;;26.70;14.77;;;21.70;99.90;;;20.66;100.00;102519.53;5023115;28;20483;-72
2021/07/17 00:23:11;;;;;;;25.50;14.30;;;21.70;99.90;;;20.66;100.00;102503.47;5030167;28;20095;-72
2021/07/17 00:25:37;;;;;;;24.23;15.38;;;21.70;99.90;;;20.67;100.00;102508.75;5034104;28;20045;-73
2021/07/17 00:28:04;;;;;;;27.83;14.63;;;21.70;99.90;;;20.67;100.00;102529.28;5004934;28;20040;-73
2021/07/17 00:30:30;;;;;;;20.48;13.75;;;21.70;99.90;;;20.62;100.00;102526.88;5023747;28;20021;-72
2021/07/17 00:32:56;;;;;;;20.55;13.65;;;21.70;99.90;;;20.62;100.00;102512.63;5005334;28;20037;-73
2021/07/17 00:35:22;;;;;;;25.70;15.05;;;21.60;99.90;;;20.60;100.00;102466.38;5024246;28;20116;-73
2021/07/17 00:37:48;;;;;;;21.08;13.57;;;21.70;99.90;;;20.64;100.00;102492.84;5023169;28;20045;-72
2021/07/17 00:40:19;;;;;;;23.63;13.80;;;21.60;99.90;;;20.64;100.00;102463.41;5021018;28;20075;-72
2021/07/17 00:42:49;;;;;;;29.73;12.85;;;21.70;99.90;;;20.65;100.00;102445.56;5014311;28;20560;-73
2021/07/17 00:45:17;;;;;;;22.80;14.32;;;21.60;99.90;;;20.59;100.00;102462.84;5022329;28;20548;-72
2021/07/17 00:47:43;;;;;;;23.38;12.90;;;21.70;99.90;;;20.65;100.00;102448.25;5023387;28;20021;-73
2021/07/17 00:50:15;;;;;;;26.45;15.07;;;21.70;99.90;;;20.60;100.00;102447.63;4999404;28;20091;-73
2021/07/17 00:52:41;;;;;;;27.42;14.85;;;21.60;99.90;;;20.60;100.00;102507.38;5023452;28;20022;-73
2021/07/17 00:55:11;;;;;;;22.88;14.02;;;21.60;99.90;;;20.58;100.00;102596.75;5025447;28;21597;-73
2021/07/17 00:57:39;;;;;;;22.40;14.55;;;21.60;99.90;;;20.60;100.00;102657.25;5021003;28;20059;-74
2021/07/17 01:00:13;;;;;;;26.67;14.40;;;21.70;99.90;;;20.64;100.00;102682.88;5039789;28;20079;-72
2021/07/17 01:02:47;;;;;;;22.67;13.30;;;21.70;99.90;;;20.69;100.00;102683.50;5023211;28;20115;-73
2021/07/17 01:05:15;;;;;;;20.77;13.80;;;21.70;99.90;;;20.63;100.00;102723.13;5023633;28;20043;-72
2021/07/17 01:07:42;;;;;;;18.63;13.93;;;21.70;99.90;;;20.60;100.00;102723.28;5020230;28;20028;-72
2021/07/17 01:10:10;;;;;;;23.25;14.48;;;21.60;99.90;;;20.59;100.00;102719.75;5023639;28;20132;-73
2021/07/17 01:12:37;;;;;;;24.58;14.13;;;21.60;99.90;;;20.65;100.00;102732.78;5005213;28;20104;-72
2021/07/17 01:15:04;;;;;;;19.83;13.18;;;21.70;99.90;;;20.63;100.00;102782.88;5006351;28;20026;-72
2021/07/17 01:17:32;;;;;;;27.02;14.48;;;21.70;99.90;;;20.60;100.00;102785.69;5020239;28;20086;-73
2021/07/17 01:19:58;;;;;;;24.33;13.48;;;21.70;99.90;;;20.59;100.00;102797.38;5038496;28;20369;-72
2021/07/17 01:22:24;;;;;;;21.85;13.82;;;21.60;99.90;;;20.60;100.00;102814.28;5038507;28;20484;-73
2021/07/17 01:24:51;;;;;;;26.63;14.70;;;21.60;99.90;;;20.64;100.00;102834.59;5020995;28;20028;-73
2021/07/17 01:27:18;;;;;;;22.23;13.13;;;21.60;99.90;;;20.60;100.00;102874.03;5022963;28;20029;-73
2021/07/17 01:29:46;;;;;;;24.52;13.82;;;21.60;99.90;;;20.69;100.00;102865.50;5021943;28;20021;-72
2021/07/17 01:32:16;;;;;;;26.05;13.88;;;21.60;99.90;;;20.64;100.00;102846.16;5023641;28;20808;-73
2021/07/17 01:34:43;;;;;;;20.08;13.65;;;21.60;99.90;;;20.50;100.00;102926.31;5023384;28;20101;-73
2021/07/17 01:37:09;;;;;;;22.05;13.63;;;21.40;99.90;;;20.29;100.00;102929.19;5004349;28;21174;-72
2021/07/17 01:39:35;;;;;;;21.45;12.80;;;21.20;99.90;;;20.04;100.00;102869.91;5024138;28;20412;-73
2021/07/17 01:42:01;;;;;;;21.10;13.93;;;21.00;99.90;;;19.93;100.00;102899.88;5022031;28;20022;-73
2021/07/17 01:44:27;;;;;;;26.75;14.00;;;21.00;99.90;;;19.92;100.00;102924.03;5030469;28;20503;-73
2021/07/17 01:46:54;;;;;;;30.40;14.07;;;20.90;99.90;;;19.97;100.00;103045.84;5036029;28;20025;-72
2021/07/17 01:49:20;;;;;;;26.83;13.90;;;21.00;99.90;;;19.93;100.00;103001.47;5027069;28;20074;-73
2021/07/17 01:51:46;;;;;;;23.60;13.88;;;21.00;99.90;;;19.89;100.00;103042.66;5023402;28;21011;-73
2021/07/17 01:54:12;;;;;;;27.10;14.05;;;21.00;99.90;;;19.87;100.00;103063.28;5005107;28;20033;-72
2021/07/17 01:56:38;;;;;;;30.90;14.40;;;20.90;99.90;;;19.93;100.00;103080.81;5022236;28;20033;-72
2021/07/17 01:59:04;;;;;;;28.95;14.68;;;21.00;99.90;;;19.93;100.00;103060.28;5019333;28;20018;-72
2021/07/17 02:01:30;;;;;;;24.20;14.43;;;20.90;99.90;;;19.81;100.00;103080.50;5006006;28;20021;-72
2021/07/17 02:03:56;;;;;;;29.17;14.27;;;20.80;99.90;;;19.76;100.00;103132.44;5023314;28;20044;-72
2021/07/17 02:06:28;;;;;;;25.73;15.10;;;20.80;99.90;;;19.76;100.00;103117.28;5021047;28;20018;-72
2021/07/17 02:08:55;;;;;;;25.77;14.75;;;;;;;19.85;100.00;103137.34;5021285;28;20032;-73
2021/07/17 02:11:22;;;;;;;22.55;13.50;;;20.90;99.90;;;19.87;100.00;103178.25;5021493;28;20029;-73
2021/07/17 02:13:51;;;;;;;24.55;14.10;;;21.00;99.90;;;19.98;100.00;103224.06;5026340;28;20032;-73
2021/07/17 02:16:23;;;;;;;30.92;15.63;;;21.00;99.90;;;19.99;100.00;103228.47;5020445;28;20018;-72
2021/07/17 02:18:50;;;;;;;19.60;14.00;;;21.10;99.90;;;20.00;100.00;103229.31;5019294;28;20085;-72
2021/07/17 02:21:18;;;;;;;25.65;14.75;;;21.00;99.90;;;20.04;100.00;103279.94;5020355;28;20026;-72
2021/07/17 02:23:45;;;;;;;26.00;15.40;;;21.10;99.90;;;20.10;100.00;103344.78;5003751;28;20386;-73
2021/07/17 02:26:12;;;;;;;27.60;15.77;;;21.20;99.90;;;20.17;100.00;103435.38;5020899;28;20119;-73
2021/07/17 02:28:39;;;;;;;37.42;15.90;;;21.20;99.90;;;20.17;100.00;103445.19;5002189;28;20040;-72
2021/07/17 02:31:07;;;;;;;29.98;15.95;;;21.20;99.90;;;20.22;100.00;103376.31;5019856;28;20058;-73
2021/07/17 02:33:34;;;;;;;27.50;15.93;;;21.20;99.90;;;20.23;100.00;103341.44;5025639;28;20166;-73
2021/07/17 02:36:00;;;;;;;27.48;15.25;;;21.20;99.90;;;20.15;100.00;103287.47;5003847;28;20024;-72
2021/07/17 02:38:26;;;;;;;26.33;15.00;;;21.20;99.90;;;20.11;100.00;103276.97;5037142;28;20612;-73
2021/07/17 02:40:52;;;;;;;28.58;14.00;;;21.20;99.90;;;20.16;100.00;103291.00;5022970;28;20029;-73
2021/07/17 02:43:19;;;;;;;27.80;14.02;;;21.20;99.90;;;20.22;100.00;103285.38;5020715;28;20041;-72
2021/07/17 02:45:46;;;;;;;32.90;13.85;;;21.20;99.90;;;20.15;100.00;103258.03;5019042;28;20033;-73
2021/07/17 02:48:12;;;;;;;23.35;12.88;;;21.20;99.90;;;20.17;100.00;103258.84;5019961;28;20083;-72
2021/07/17 02:50:38;;;;;;;21.65;11.98;;;21.20;99.90;;;20.14;100.00;103271.47;5018998;28;20042;-72
2021/07/17 02:53:04;;;;;;;23.13;12.27;;;21.20;99.90;;;20.14;100.00;103277.69;5023750;28;20060;-72
2021/07/17 02:55:30;;;;;;;22.85;12.30;;;21.20;99.90;;;20.13;100.00;103264.38;5020162;28;20120;-73
2021/07/17 02:57:56;;;;;;;21.25;12.63;;;21.20;99.90;;;20.16;100.00;103275.81;5017790;28;20155;-72
2021/07/17 03:00:22;;;;;;;19.95;11.82;;;21.20;99.90;;;20.21;100.00;103265.75;5020658;28;20033;-73
2021/07/17 03:02:48;;;;;;;19.20;11.95;;;21.30;99.90;;;20.24;100.00;103286.16;5021385;28;20045;-73
2021/07/17 03:05:15;;;;;;;27.52;12.40;;;21.30;99.90;;;20.28;100.00;103283.28;5024576;28;20033;-72
2021/07/17 03:07:41;;;;;;;18.08;11.32;;;21.30;99.90;;;20.33;100.00;103284.88;5004061;28;20033;-72
2021/07/17 03:10:08;;;;;;;23.95;11.13;;;21.30;99.90;;;20.27;100.00;103304.75;5003239;28;20033;-73
2021/07/17 03:12:34;;;;;;;21.83;10.90;;;21.40;99.90;;;20.42;100.00;103313.84;5030402;28;20108;-73
2021/07/17 03:15:00;;;;;;;23.88;11.40;;;21.40;99.90;;;20.43;100.00;103240.66;5019050;28;20052;-73
2021/07/17 03:17:26;;;;;;;19.08;9.82;;;21.50;99.90;;;20.35;100.00;103197.38;5019910;28;20108;-72
2021/07/17 03:19:52;;;;;;;17.77;10.48;;;21.40;99.90;;;20.26;100.00;103191.50;5036634;28;20036;-72
2021/07/17 03:22:18;;;;;;;23.02;11.57;;;21.40;99.90;;;20.36;100.00;103193.72;5019978;28;20163;-72
2021/07/17 03:24:44;;;;;;;19.30;11.15;;;21.40;99.90;;;20.34;100.00;103177.75;5035988;28;20030;-73
2021/07/17 03:27:10;;;;;;;27.80;11.85;;;21.40;99.90;;;20.31;100.00;103155.66;5021402;28;20444;-73
2021/07/17 03:29:36;;;;;;;18.15;11.25;;;21.40;99.90;;;20.35;100.00;103141.19;5004449;28;23001;-73
2021/07/17 03:32:03;;;;;;;21.00;11.18;;;21.40;99.90;;;20.38;100.00;103141.00;5012135;28;20131;-73
2021/07/17 03:34:29;;;;;;;25.02;11.43;;;21.40;99.90;;;20.28;100.00;103103.16;5020660;28;20511;-73
2021/07/17 03:36:55;;;;;;;34.15;13.43;;;21.30;99.90;;;20.31;100.00;103096.78;5036777;28;20036;-73
2021/07/17 03:39:21;;;;;;;21.05;11.88;;;21.40;99.90;;;20.34;100.00;103093.94;5019397;28;20060;-73
2021/07/17 03:41:47;;;;;;;22.77;11.43;;;21.30;99.90;;;20.32;100.00;103091.34;5021599;28;20120;-72
2021/07/17 03:44:13;;;;;;;27.85;11.18;;;21.40;99.90;;;20.36;100.00;103070.66;5045568;28;20029;-72
2021/07/17 03:46:39;;;;;;;20.05;13.13;;;21.40;99.90;;;20.31;100.00;103067.34;5025334;28;20568;-73
2021/07/17 03:49:05;;;;;;;23.83;12.05;;;21.30;99.90;;;20.27;100.00;103214.63;5022214;28;20025;-73
2021/07/17 03:51:31;;;;;;;23.83;12.93;;;21.30;99.90;;;20.30;100.00;103331.34;5026901;28;20158;-72
2021/07/17 03:53:57;;;;;;;24.50;11.98;;;21.40;99.90;;;20.35;100.00;103404.25;5024041;28;20570;-72
2021/07/17 03:56:23;;;;;;;25.52;12.50;;;21.30;99.90;;;20.26;100.00;103459.03;5024371;28;20067;-73
2021/07/17 03:58:49;;;;;;;21.38;12.65;;;21.30;99.90;;;20.25;100.00;103572.34;5022231;28;20576;-72
2021/07/17 04:01:16;;;;;;;23.17;13.02;;;21.30;99.90;;;20.45;100.00;103618.78;5039637;28;20017;-72
2021/07/17 04:03:46;;;;;;;25.35;13.30;;;21.40;99.90;;;20.36;100.00;103518.34;5025812;28;20120;-73
2021/07/17 04:06:12;;;;;;;22.73;13.10;;;21.40;99.90;;;20.39;100.00;103507.53;5022862;28;20025;-73
2021/07/17 04:08:38;;;;;;;21.80;14.07;;;21.40;99.90;;;20.40;100.00;103572.63;5015656;28;20389;-72
2021/07/17 04:11:04;;;;;;;22.85;13.50;;;21.50;99.90;;;20.39;100.00;103660.06;5023429;28;20087;-73
2021/07/17 04:13:30;;;;;;;24.90;13.13;;;21.50;99.90;;;20.58;100.00;103653.94;5024421;28;20481;-73
2021/07/17 04:15:56;;;;;;;24.70;13.18;;;21.60;99.90;;;20.60;100.00;103660.97;5022543;28;20028;-73
2021/07/17 04:18:21;;;;;;;19.77;13.27;;;21.60;99.90;;;20.53;100.00;103479.28;5022831;28;20499;-73
2021/07/17 04:20:47;;;;;;;24.77;13.88;;;21.70;99.90;;;20.72;100.00;103452.56;5023383;28;20033;-73
2021/07/17 04:23:13;;;;;;;22.70;13.55;;;21.80;99.90;;;20.80;100.00;103428.97;5006127;28;20549;-73
2021/07/17 04:25:39;;;;;;;20.10;12.52;;;21.80;99.90;;;20.67;100.00;103405.47;5025172;28;20492;-73
2021/07/17 04:28:05;;;;;;;24.05;14.05;;;21.80;99.90;;;20.68;100.00;103395.63;5008097;28;20481;-73
2021/07/17 04:30:33;;;;;;;24.27;13.80;;;21.70;99.90;;;20.66;100.00;103393.00;5006355;28;20021;-72
2021/07/17 04:32:59;;;;;;;26.50;14.38;;;21.70;99.90;;;20.66;100.00;103400.19;5023133;28;20033;-72
2021/07/17 04:35:25;;;;;;;21.70;13.27;;;21.70;99.90;;;20.79;100.00;103398.66;5031209;28;20033;-72
2021/07/17 04:37:51;;;;;;;22.83;13.43;;;21.90;99.90;;;21.00;100.00;103428.03;5005622;28;20032;-73
2021/07/17 04:40:18;;;;;;;19.55;13.48;;;22.10;99.90;;;21.10;100.00;103373.94;5023348;28;20044;-73
2021/07/17 04:42:43;;;;;;;24.90;13.63;;;22.20;99.90;;;21.17;100.00;103352.22;5024055;28;20400;-73
2021/07/17 04:45:10;;;;;;;22.90;12.73;;;22.30;99.90;;;21.23;100.00;103325.06;5024547;28;20032;-73
2021/07/17 04:47:37;;;;;;;20.75;12.40;;;22.30;99.90;;;21.20;100.00;103335.97;5022974;28;20500;-72
2021/07/17 04:50:04;;;;;;;21.10;12.65;;;22.30;99.90;;;21.13;100.00;103305.94;5022920;28;20045;-73
2021/07/17 04:52:31;;;;;;;23.48;12.40;;;22.10;99.90;;;21.00;100.00;103284.25;5039925;28;20045;-73
2021/07/17 04:54:57;;;;;;;23.25;13.98;;;22.10;99.90;;;21.00;100.00;103268.19;5023485;28;20037;-73
2021/07/17 04:57:23;;;;;;;20.55;12.25;;;22.10;99.90;;;21.09;100.00;103267.72;5020741;28;20530;-72
2021/07/17 04:59:49;;;;;;;22.48;12.65;;;22.10;99.90;;;21.16;100.00;103262.03;5022380;28;20044;-72
2021/07/17 05:02:15;;;;;;;23.65;13.20;;;22.10;99.90;;;20.97;100.00;103225.50;5022478;28;20028;-73
2021/07/17 05:04:41;;;;;;;19.65;13.05;;;22.10;99.90;;;20.95;100.00;103231.84;5016268;28;20025;-73
2021/07/17 05:07:07;;;;;;;22.75;13.63;;;22.00;99.90;;;20.92;100.00;103214.13;5021946;28;23321;-72
2021/07/17 05:09:33;;;;;;;19.25;12.57;;;22.00;99.90;;;20.91;100.00;103217.78;5021546;28;20025;-72
2021/07/17 05:11:59;;;;;;;22.98;13.10;;;22.00;99.90;;;21.03;100.00;103222.47;5005429;28;20388;-73
2021/07/17 05:14:25;;;;;;;22.58;12.93;;;22.10;99.90;;;21.03;100.00;103214.44;5020429;28;20044;-74
2021/07/17 05:16:51;;;;;;;25.83;12.63;;;22.10;99.90;;;21.06;100.00;103230.38;5022710;28;20033;-73
2021/07/17 05:19:18;;;;;;;22.17;12.05;;;22.10;99.90;;;21.01;100.00;103192.22;5004365;28;20033;-74
2021/07/17 05:21:45;;;;;;;24.02;12.68;;;22.10;99.90;;;21.00;100.00;103201.22;5042058;28;20025;-73
2021/07/17 05:24:10;;;;;;;25.75;13.10;;;22.10;99.90;;;21.08;100.00;103222.28;5034222;28;20393;-73
2021/07/17 05:26:36;;;;;;;25.45;12.85;;;22.10;99.90;;;21.26;100.00;103218.63;5022257;28;20026;-73
2021/07/17 05:29:03;;;;;;;18.88;12.30;;;22.30;99.90;;;21.31;100.00;103216.56;5020952;28;20033;-73
2021/07/17 05:31:29;;;;;;;29.63;12.60;;;22.20;99.90;;;21.12;100.00;103180.09;5021200;28;20382;-73
2021/07/17 05:33:55;;;;;;;23.75;13.32;;;22.20;99.90;;;21.10;100.00;103177.50;5024903;28;20560;-73
2021/07/17 05:36:21;;;;;;;21.92;12.80;;;22.20;99.90;;;21.25;100.00;103095.44;5020641;28;20053;-73
2021/07/17 05:38:47;;;;;;;20.40;12.35;;;22.30;99.90;;;21.31;100.00;103288.91;5021504;28;20040;-73
2021/07/17 05:41:13;;;;;;;18.80;12.23;;;22.40;99.90;;;21.38;100.00;103331.47;5019579;28;20022;-73
2021/07/17 05:43:39;;;;;;;19.90;13.25;;;22.50;99.90;;;21.57;100.00;103334.09;5021178;28;20048;-73
2021/07/17 05:46:05;;;;;;;20.23;12.73;;;22.60;99.90;;;21.73;100.00;103257.28;5005867;28;20066;-73
2021/07/17 05:48:31;;;;;;;17.50;11.25;;;22.60;99.90;;;21.69;100.00;104012.78;5045708;28;20507;-72
2021/07/17 05:50:57;;;;;;;20.75;12.32;;;22.60;99.90;;;21.45;100.00;103397.28;5021436;28;20021;-73
2021/07/17 05:53:23;;;;;;;17.77;11.38;;;22.40;99.90;;;21.25;100.00;103384.81;5021754;28;20582;-73
2021/07/17 05:55:49;;;;;;;19.92;12.20;;;22.40;99.90;;;21.43;100.00;103333.00;5024535;28;20117;-72
2021/07/17 05:58:15;;;;;;;22.08;12.48;;;22.40;99.90;;;21.42;100.00;103253.53;5019148;28;20033;-72
2021/07/17 06:00:42;;;;;;;19.17;11.15;;;22.50;99.90;;;21.28;100.00;103197.13;5003850;28;20060;-73
2021/07/17 06:03:09;;;;;;;20.63;12.10;;;22.40;99.90;;;21.24;100.00;103176.78;5022635;28;20064;-73
2021/07/17 06:05:36;;;;;;;17.08;12.00;;;22.30;99.90;;;21.29;100.00;103153.28;5024156;28;20017;-73
2021/07/17 06:08:03;;;;;;;21.08;12.13;;;22.30;99.90;;;21.18;100.00;103128.88;5021825;28;20028;-74
2021/07/17 06:10:29;;;;;;;21.98;13.32;;;22.30;99.90;;;21.17;100.00;103122.66;5020715;28;20114;-72
2021/07/17 06:12:55;;;;;;;21.38;12.77;;;22.20;99.90;;;21.11;100.00;103098.88;5013807;28;20447;-73
2021/07/17 06:15:21;;;;;;;22.75;13.27;;;22.20;99.90;;;21.14;100.00;103089.81;5021817;28;20029;-73
2021/07/17 06:17:52;;;;;;;18.95;12.23;;;22.20;99.90;;;21.15;100.00;103096.91;5018591;28;20385;-73
2021/07/17 06:20:21;;;;;;;24.13;12.27;;;22.20;99.90;;;21.20;100.00;103090.34;5021142;28;20044;-73
2021/07/17 06:22:47;;;;;;;22.20;12.00;;;22.20;99.90;;;21.28;100.00;103104.19;5036261;28;20112;-72
2021/07/17 06:25:13;;;;;;;20.75;11.95;;;22.30;99.90;;;21.23;100.00;103083.94;4996029;28;20108;-74
2021/07/17 06:27:39;;;;;;;21.80;12.60;;;22.30;99.90;;;21.20;100.00;103026.03;5020322;28;20470;-73
2021/07/17 06:30:06;;;;;;;21.08;13.18;;;22.30;99.90;;;21.29;100.00;103040.75;5022046;28;20017;-75
2021/07/17 06:32:32;;;;;;;20.67;13.15;;;22.30;99.90;;;21.41;100.00;103048.13;5019377;28;20442;-74
2021/07/17 06:34:58;;;;;;;19.80;12.43;;;22.40;99.90;;;21.36;100.00;103035.91;5004108;28;20048;-75
2021/07/17 06:37:25;;;;;;;21.30;12.43;;;22.40;99.90;;;21.44;100.00;103055.13;5019171;28;20517;-75
2021/07/17 06:39:51;;;;;;;21.90;12.15;;;22.50;99.90;;;21.52;100.00;103057.41;5019185;28;20029;-75
2021/07/17 06:42:17;;;;;;;21.35;11.77;;;22.50;99.90;;;21.35;100.00;103020.78;5013268;28;20040;-75
2021/07/17 06:44:44;;;;;;;21.83;12.38;;;22.40;99.90;;;21.39;100.00;103046.47;5005492;28;20049;-75
2021/07/17 06:47:11;;;;;;;21.15;11.95;;;22.50;99.90;;;21.27;100.00;103019.41;5019166;28;20021;-75
2021/07/17 06:49:37;;;;;;;23.15;13.07;;;22.40;99.90;;;21.37;100.00;103030.47;5023340;28;20025;-75
2021/07/17 06:52:04;;;;;;;19.60;13.50;;;22.50;99.90;;;21.49;100.00;103053.94;5011464;28;20041;-75
2021/07/17 06:54:30;;;;;;;17.92;11.82;;;22.50;99.90;;;21.55;100.00;103038.44;5020268;28;20033;-75
2021/07/17 06:56:56;;;;;;;17.55;11.45;;;22.60;99.90;;;21.53;100.00;103040.34;5012248;28;20397;-75
2021/07/17 06:59:22;;;;;;;25.45;13.32;;;22.60;99.90;;;21.46;100.00;103011.22;5011736;28;20091;-75
2021/07/17 07:01:48;;;;;;;20.50;11.85;;;22.50;99.90;;;21.43;100.00;103018.59;5004484;28;20433;-75
2021/07/17 07:04:14;;;;;;;19.98;12.38;;;22.50;99.90;;;21.45;100.00;103014.84;5021787;28;20053;-75
2021/07/17 07:06:40;;;;;;;21.85;12.68;;;22.50;99.90;;;21.66;100.00;103036.00;5020118;28;20061;-75
2021/07/17 07:09:06;;;;;;;22.35;12.30;;;22.60;99.90;;;21.45;100.00;103432.13;5019579;28;20038;-75
2021/07/17 07:11:32;;;;;;;22.67;12.15;;;22.60;99.90;;;21.62;100.00;103748.50;5019881;28;20032;-75
2021/07/17 07:13:58;;;;;;;18.48;12.02;;;22.70;99.90;;;21.61;100.00;103343.72;5017313;28;20034;-75
2021/07/17 07:16:24;;;;;;;17.77;11.25;;;22.70;99.90;;;21.66;100.00;103347.91;5014629;28;20366;-77
2021/07/17 07:18:49;;;;;;;20.88;11.63;;;22.80;99.90;;;21.82;100.00;103337.22;5025522;28;20029;-75
2021/07/17 07:21:15;;;;;;;20.27;12.07;;;23.00;99.90;;;22.02;98.79;103295.06;5050378;28;20060;-74
2021/07/17 07:23:41;;;;;;;18.67;11.15;;;23.00;99.90;;;22.01;98.04;103304.94;5021090;28;20039;-74
2021/07/17 07:26:07;;;;;;;17.90;11.32;;;23.10;99.90;;;22.16;97.78;103230.78;5053271;28;20397;-74
2021/07/17 07:28:33;;;;;;;16.70;11.25;;;23.10;99.90;;;22.02;99.39;103225.31;5020254;28;20123;-74
2021/07/17 07:30:59;;;;;;;21.55;11.45;;;23.10;99.90;;;21.95;100.00;103171.13;5003858;28;20050;-75
2021/07/17 07:33:25;;;;;;;19.80;12.38;;;23.10;99.90;;;22.01;99.27;103137.72;5036108;28;20653;-76
2021/07/17 07:35:51;;;;;;;20.17;11.65;;;23.00;99.90;;;21.92;100.00;103140.00;5012494;28;20029;-73
2021/07/17 07:38:17;;;;;;;21.20;12.00;;;22.90;99.90;;;21.76;100.00;103114.97;5020947;28;20037;-74
2021/07/17 07:40:43;;;;;;;18.02;11.27;;;22.80;99.90;;;21.72;100.00;103110.75;5043087;28;20116;-74
2021/07/17 07:43:10;;;;;;;16.77;11.32;;;22.80;99.90;;;21.66;100.00;103103.03;5021072;28;20121;-74
2021/07/17 07:45:36;;;;;;;19.23;11.68;;;22.70;99.90;;;21.56;100.00;103051.78;5021218;28;20485;-73
2021/07/17 07:48:02;;;;;;;18.55;11.88;;;22.70;99.90;;;21.61;100.00;103043.47;5018810;28;20021;-74
2021/07/17 07:50:29;;;;;;;20.23;11.23;;;;;;;21.83;99.80;103073.44;5020234;28;20032;-74
2021/07/17 07:52:54;;;;;;;15.40;10.82;;;22.70;99.90;;;21.79;99.08;103060.31;5022182;28;20033;-74
2021/07/17 07:55:20;;;;;;;17.70;11.07;;;22.90;99.90;;;21.90;98.55;103066.81;5019095;28;20064;-74
2021/07/17 07:57:48;;;;;;;16.13;10.65;;;22.90;99.90;;;21.80;97.74;103060.22;5026033;28;20021;-74
2021/07/17 08:00:16;;;;;;;17.13;10.75;;;22.90;99.90;;;21.79;98.29;103045.09;5039635;28;20040;-74
2021/07/17 08:02:42;;;;;;;14.95;10.73;;;22.80;99.90;;;21.81;98.14;103055.72;5019610;28;20418;-74
2021/07/17 08:05:10;;;;;;;14.82;10.43;;;23.00;99.90;;;22.13;97.12;103099.47;5019113;28;20450;-74
2021/07/17 08:07:36;;;;;;;17.45;10.75;;;23.10;99.90;;;22.07;97.49;103071.19;5008878;28;21239;-74
2021/07/17 08:10:04;;;;;;;14.90;10.85;;;23.20;99.90;;;22.23;96.44;103094.47;5020223;28;20036;-74
2021/07/17 08:12:30;;;;;;;16.05;10.27;;;23.20;99.90;;;22.19;93.30;103082.16;5002804;28;20136;-74
2021/07/17 08:14:56;;;;;;;18.38;9.68;;;23.20;99.90;;;22.16;93.66;103061.75;5018887;28;20022;-73
2021/07/17 08:17:22;;;;;;;16.52;10.20;;;23.20;99.90;;;22.05;95.08;103045.38;5035703;28;20452;-74
2021/07/17 08:19:48;;;;;;;15.18;9.80;;;23.20;99.90;;;22.08;94.83;103050.59;5018189;28;20035;-74
2021/07/17 08:22:14;;;;;;;15.13;10.50;;;23.30;99.90;;;22.29;94.70;103073.50;5035804;28;20492;-74
2021/07/17 08:24:40;;;;;;;15.30;10.43;;;23.30;99.90;;;22.25;92.88;103050.47;5019798;28;20045;-74
2021/07/17 08:27:06;;;;;;;19.35;10.73;;;23.30;99.90;;;22.35;94.96;103071.41;5020089;28;20025;-74
2021/07/17 08:29:32;;;;;;;13.90;9.82;;;23.30;99.90;;;22.43;92.31;103066.44;5022279;28;20108;-75
2021/07/17 08:31:58;;;;;;;16.58;10.20;;;23.50;99.90;;;22.57;89.94;103079.00;5025345;28;20030;-75
2021/07/17 08:34:24;;;;;;;13.43;9.48;;;23.60;99.90;;;22.53;89.92;103064.94;5024174;28;20064;-75
2021/07/17 08:36:50;;;;;;;19.00;10.57;;;23.70;99.90;;;22.75;92.07;103095.84;5030276;28;20026;-74
2021/07/17 08:39:16;;;;;;;14.40;9.88;;;23.90;99.90;;;23.08;89.57;103128.72;5013026;28;20033;-75
2021/07/17 08:41:49;;;;;;;15.20;9.90;;;24.10;99.90;;;23.16;91.17;103122.03;5039869;28;20037;-75
2021/07/17 08:44:18;;;;;;;17.75;9.73;;;24.30;99.90;;;23.36;89.10;103124.31;5021112;28;20485;-75
2021/07/17 08:46:46;;;;;;;13.52;9.82;;;24.60;99.90;;;23.66;87.06;103151.06;5057056;28;20029;-75
2021/07/17 08:49:13;;;;;;;15.25;9.48;;;24.70;99.90;;;23.73;87.31;103127.31;5021343;28;20021;-75
2021/07/17 08:51:39;;;;;;;14.25;9.52;;;24.80;99.90;;;23.56;87.46;103080.00;5040229;28;20033;-75
2021/07/17 08:54:05;;;;;;;14.40;9.93;;;24.60;99.90;;;23.38;89.66;103065.94;5013275;28;20018;-75
2021/07/17 08:56:31;;;;;;;15.02;9.88;;;24.40;99.90;;;23.41;89.28;103079.19;5023004;28;20104;-75
2021/07/17 08:58:58;;;;;;;17.92;10.77;;;24.50;99.90;;;23.61;89.82;103106.63;5038379;28;20025;-74
2021/07/17 09:01:31;;;;;;;23.40;11.23;;;24.50;99.90;;;23.45;89.65;103067.25;4988551;28;20024;-75
2021/07/17 09:03:59;;;;;;;21.98;11.98;;;24.70;99.90;;;23.90;87.74;103118.19;4963855;28;20045;-75
2021/07/17 09:06:50;;;;;;;21.77;11.93;;;24.80;99.90;;;23.84;88.35;103111.38;4980246;28;20091;-75
2021/07/17 09:09:55;;;;;;;20.40;12.02;;;24.90;99.90;;;23.80;87.31;103069.53;4980176;28;20060;-75
2021/07/17 09:12:36;;;;;;;18.38;10.88;;;25.00;99.90;;;24.10;86.90;103115.06;4980982;28;20048;-75
2021/07/17 09:15:27;;;;;;;22.67;12.80;;;25.00;99.90;;;23.85;87.59;103066.53;4980702;28;20040;-75
2021/07/17 09:18:16;;;;;;;16.35;10.38;;;25.00;99.90;;;24.06;85.63;103069.59;4962791;28;22034;-75
2021/07/17 09:21:13;;;;;;;15.23;10.20;;;25.30;99.90;;;24.44;85.60;103106.53;4981606;28;20214;-75
2021/07/17 09:24:17;;;;;;;17.45;9.95;;;25.60;99.90;;;24.41;82.18;103077.97;4982573;28;20041;-75
2021/07/17 09:27:09;;;;;;;20.05;10.38;;;26.10;99.90;;;25.65;78.70;103207.75;4988316;28;20045;-75
2021/07/17 09:29:44;;;;;;;14.27;9.98;;;26.80;99.90;;;26.12;75.83;103214.25;4973493;28;20040;-75
2021/07/17 09:32:24;;;;;;;12.70;8.73;;;26.90;99.90;;;25.95;75.34;103875.00;4994218;28;20516;-75
2021/07/17 09:35:22;;;;;;;11.88;8.68;;;27.30;99.90;;;25.98;74.66;103334.91;4981203;28;20379;-74
2021/07/17 09:38:46;;;;;;;14.10;8.25;;;27.60;99.90;;;26.32;72.39;103332.44;4962954;28;20068;-75
2021/07/17 09:41:41;;;;;;;16.15;9.68;;;27.10;99.90;;;25.36;75.03;103225.03;4991404;28;20048;-75
2021/07/17 09:45:14;;;;;;;13.45;8.50;;;26.60;99.90;;;24.71;77.77;103083.13;4993039;28;20041;-75
2021/07/17 09:49:05;;;;;;;10.93;8.13;;;26.30;99.90;;;24.56;75.58;103033.88;4977970;28;20048;-74
2021/07/17 09:52:51;;;;;;;15.93;9.63;;;26.20;99.90;;;25.73;75.14;103110.91;4981237;28;20033;-74
2021/07/17 09:56:18;;;;;;;16.83;9.30;;;26.90;99.90;;;26.10;73.53;103044.25;4992784;28;20068;-74
2021/07/17 09:59:38;;;;;;;13.15;8.85;;;27.00;99.90;;;26.22;71.98;103050.56;4993626;28;20489;-75
2021/07/17 10:03:33;;;;;;;11.95;9.10;;;27.50;99.90;;;27.01;67.25;103115.59;4978263;28;20493;-75
2021/07/17 10:06:58;;;;;;;15.48;8.52;;;27.60;99.90;;;26.45;69.26;103007.41;4990696;28;20053;-75